sensor_id;sensor_type;location;lat;lon;timestamp;pressure;altitude;pressure_sealevel;temperature;humidity
10806;BME280;5455;53.224;6.000;2023-05-16T00:01:19;101872.50;;;8.44;100.00
10806;BME280;5455;53.224;6.000;2023-05-16T00:03:46;101874.31;;;8.49;100.00
10806;BME280;5455;53.224;6.000;2023-05-16T00:06:13;101870.28;;;8.46;100.00
10806;BME280;5455;53.224;6.000;2023-05-16T00:08:41;101871.22;;;8.42;100.00
10806;BME280;5455;53.224;6.000;2023-05-16T00:11:08;101866.69;;;8.37;100.00
10806;BME280;5455;53.224;6.000;2023-05-16T00:13:35;101879.44;;;8.33;100.00
10806;BME280;5455;53.224;6.000;2023-05-16T00:16:02;101867.16;;;8.30;100.00
10806;BME280;5455;53.224;6.000;2023-05-16T00:18:30;101873.47;;;8.31;100.00
10806;BME280;5455;53.224;6.000;2023-05-16T00:20:58;101873.47;;;8.31;100.00
10806;BME280;5455;53.224;6.000;2023-05-16T00:23:25;101876.84;;;8.28;100.00
10806;BME280;5455;53.224;6.000;2023-05-16T00:25:52;101874.69;;;8.25;100.00
10806;BME280;5455;53.224;6.000;2023-05-16T00:28:19;101875.81;;;8.24;100.00
10806;BME280;5455;53.224;6.000;2023-05-16T00:30:46;101875.97;;;8.19;100.00
10806;BME280;5455;53.224;6.000;2023-05-16T00:33:14;101882.09;;;8.16;100.00
10806;BME280;5455;53.224;6.000;2023-05-16T00:35:41;101884.50;;;8.17;100.00
10806;BME280;5455;53.224;6.000;2023-05-16T00:38:10;101892.47;;;8.19;100.00
10806;BME280;5455;53.224;6.000;2023-05-16T00:40:37;101879.53;;;8.19;100.00
10806;BME280;5455;53.224;6.000;2023-05-16T00:43:04;101887.59;;;8.16;100.00
10806;BME280;5455;53.224;6.000;2023-05-16T00:45:31;101881.44;;;8.10;100.00
10806;BME280;5455;53.224;6.000;2023-05-16T00:47:59;101880.44;;;8.06;100.00
10806;BME280;5455;53.224;6.000;2023-05-16T00:50:26;101876.69;;;8.02;100.00
10806;BME280;5455;53.224;6.000;2023-05-16T00:52:53;101883.81;;;8.03;100.00
10806;BME280;5455;53.224;6.000;2023-05-16T00:55:20;101881.06;;;8.03;100.00
10806;BME280;5455;53.224;6.000;2023-05-16T00:57:47;101884.03;;;8.15;100.00
10806;BME280;5455;53.224;6.000;2023-05-16T01:00:15;101887.84;;;8.28;100.00
10806;BME280;5455;53.224;6.000;2023-05-16T01:02:43;101889.31;;;8.34;100.00
10806;BME280;5455;53.224;6.000;2023-05-16T01:05:10;101891.06;;;8.30;100.00
10806;BME280;5455;53.224;6.000;2023-05-16T01:07:38;101893.44;;;8.23;100.00
10806;BME280;5455;53.224;6.000;2023-05-16T01:10:07;101890.81;;;8.18;100.00
10806;BME280;5455;53.224;6.000;2023-05-16T01:13:07;101889.88;;;8.14;100.00
10806;BME280;5455;53.224;6.000;2023-05-16T01:15:55;101891.13;;;8.08;100.00
10806;BME280;5455;53.224;6.000;2023-05-16T01:21:00;101886.25;;;8.05;100.00
10806;BME280;5455;53.224;6.000;2023-05-16T01:26:22;101885.31;;;8.09;100.00
10806;BME280;5455;53.224;6.000;2023-05-16T01:28:51;101881.56;;;8.05;100.00
10806;BME280;5455;53.224;6.000;2023-05-16T01:31:19;101885.94;;;8.06;100.00
10806;BME280;5455;53.224;6.000;2023-05-16T01:33:47;101880.78;;;8.05;100.00
10806;BME280;5455;53.224;6.000;2023-05-16T01:36:29;101882.53;;;8.01;100.00
10806;BME280;5455;53.224;6.000;2023-05-16T01:39:23;101888.66;;;7.98;100.00
10806;BME280;5455;53.224;6.000;2023-05-16T01:47:09;101882.13;;;7.85;100.00
10806;BME280;5455;53.224;6.000;2023-05-16T01:52:27;101886.59;;;7.81;100.00
10806;BME280;5455;53.224;6.000;2023-05-16T01:54:57;101881.44;;;7.80;100.00
10806;BME280;5455;53.224;6.000;2023-05-16T01:57:27;101888.88;;;7.79;100.00
10806;BME280;5455;53.224;6.000;2023-05-16T01:59:57;101880.97;;;7.78;100.00
10806;BME280;5455;53.224;6.000;2023-05-16T02:02:26;101881.59;;;7.74;100.00
10806;BME280;5455;53.224;6.000;2023-05-16T02:04:53;101879.34;;;7.76;100.00
10806;BME280;5455;53.224;6.000;2023-05-16T02:07:21;101884.63;;;7.73;100.00
10806;BME280;5455;53.224;6.000;2023-05-16T02:09:48;101885.78;;;7.72;100.00
10806;BME280;5455;53.224;6.000;2023-05-16T02:12:15;101880.28;;;7.72;100.00
10806;BME280;5455;53.224;6.000;2023-05-16T02:14:43;101873.78;;;7.68;100.00
10806;BME280;5455;53.224;6.000;2023-05-16T02:17:10;101879.44;;;7.63;100.00
10806;BME280;5455;53.224;6.000;2023-05-16T02:19:37;101882.59;;;7.56;100.00
10806;BME280;5455;53.224;6.000;2023-05-16T02:22:05;101884.69;;;7.51;100.00
10806;BME280;5455;53.224;6.000;2023-05-16T02:24:33;101874.47;;;7.51;100.00
10806;BME280;5455;53.224;6.000;2023-05-16T02:27:00;101877.56;;;7.50;100.00
10806;BME280;5455;53.224;6.000;2023-05-16T02:29:27;101869.94;;;7.47;100.00
10806;BME280;5455;53.224;6.000;2023-05-16T02:31:54;101883.66;;;7.47;100.00
10806;BME280;5455;53.224;6.000;2023-05-16T02:34:21;101879.28;;;7.46;100.00
10806;BME280;5455;53.224;6.000;2023-05-16T02:36:48;101874.94;;;7.45;100.00
10806;BME280;5455;53.224;6.000;2023-05-16T02:39:15;101889.44;;;7.45;100.00
10806;BME280;5455;53.224;6.000;2023-05-16T02:41:42;101879.63;;;7.44;100.00
10806;BME280;5455;53.224;6.000;2023-05-16T02:44:09;101880.53;;;7.40;100.00
10806;BME280;5455;53.224;6.000;2023-05-16T02:46:36;101886.84;;;7.40;100.00
10806;BME280;5455;53.224;6.000;2023-05-16T02:49:04;101893.44;;;7.39;100.00
10806;BME280;5455;53.224;6.000;2023-05-16T02:51:31;101889.22;;;7.33;100.00
10806;BME280;5455;53.224;6.000;2023-05-16T02:53:58;101892.91;;;7.29;100.00
10806;BME280;5455;53.224;6.000;2023-05-16T02:56:28;101888.03;;;7.26;100.00
10806;BME280;5455;53.224;6.000;2023-05-16T02:58:55;101894.00;;;7.28;100.00
10806;BME280;5455;53.224;6.000;2023-05-16T03:01:22;101897.09;;;7.26;100.00
10806;BME280;5455;53.224;6.000;2023-05-16T03:03:50;101895.25;;;7.21;100.00
10806;BME280;5455;53.224;6.000;2023-05-16T03:06:17;101884.91;;;7.18;100.00
10806;BME280;5455;53.224;6.000;2023-05-16T03:08:45;101885.22;;;7.17;100.00
10806;BME280;5455;53.224;6.000;2023-05-16T03:11:13;101886.34;;;7.16;100.00
10806;BME280;5455;53.224;6.000;2023-05-16T03:13:40;101881.19;;;7.14;100.00
10806;BME280;5455;53.224;6.000;2023-05-16T03:16:07;101890.53;;;7.13;100.00
10806;BME280;5455;53.224;6.000;2023-05-16T03:18:34;101895.69;;;7.15;100.00
10806;BME280;5455;53.224;6.000;2023-05-16T03:21:02;101893.66;;;7.20;100.00
10806;BME280;5455;53.224;6.000;2023-05-16T03:23:29;101894.75;;;7.19;100.00
10806;BME280;5455;53.224;6.000;2023-05-16T03:25:56;101898.88;;;7.31;100.00
10806;BME280;5455;53.224;6.000;2023-05-16T03:28:23;101892.28;;;7.32;100.00
10806;BME280;5455;53.224;6.000;2023-05-16T03:30:53;101892.28;;;7.32;100.00
10806;BME280;5455;53.224;6.000;2023-05-16T03:33:20;101898.94;;;7.39;100.00
10806;BME280;5455;53.224;6.000;2023-05-16T03:35:47;101892.72;;;7.47;100.00
10806;BME280;5455;53.224;6.000;2023-05-16T03:38:14;101897.44;;;7.55;100.00
10806;BME280;5455;53.224;6.000;2023-05-16T03:40:43;101901.00;;;7.56;100.00
10806;BME280;5455;53.224;6.000;2023-05-16T03:43:10;101907.94;;;7.53;100.00
10806;BME280;5455;53.224;6.000;2023-05-16T03:45:37;101904.50;;;7.48;100.00
10806;BME280;5455;53.224;6.000;2023-05-16T03:48:04;101898.50;;;7.46;100.00
10806;BME280;5455;53.224;6.000;2023-05-16T03:50:31;101907.41;;;7.51;100.00
10806;BME280;5455;53.224;6.000;2023-05-16T03:52:59;101913.28;;;7.58;100.00
10806;BME280;5455;53.224;6.000;2023-05-16T03:55:26;101907.38;;;7.65;100.00
10806;BME280;5455;53.224;6.000;2023-05-16T03:57:53;101908.47;;;7.64;100.00
10806;BME280;5455;53.224;6.000;2023-05-16T04:00:20;101908.22;;;7.74;100.00
10806;BME280;5455;53.224;6.000;2023-05-16T04:02:47;101912.47;;;7.80;100.00
10806;BME280;5455;53.224;6.000;2023-05-16T04:05:15;101914.56;;;7.83;100.00
10806;BME280;5455;53.224;6.000;2023-05-16T04:07:42;101912.31;;;7.85;100.00
10806;BME280;5455;53.224;6.000;2023-05-16T04:10:09;101916.69;;;7.86;100.00
10806;BME280;5455;53.224;6.000;2023-05-16T04:12:36;101911.03;;;7.83;100.00
10806;BME280;5455;53.224;6.000;2023-05-16T04:15:04;101915.69;;;7.82;100.00
10806;BME280;5455;53.224;6.000;2023-05-16T04:17:33;101913.81;;;7.91;100.00
10806;BME280;5455;53.224;6.000;2023-05-16T04:20:01;101926.41;;;7.92;100.00
10806;BME280;5455;53.224;6.000;2023-05-16T04:22:28;101919.16;;;7.96;100.00
10806;BME280;5455;53.224;6.000;2023-05-16T04:24:55;101920.00;;;8.05;100.00
10806;BME280;5455;53.224;6.000;2023-05-16T04:27:22;101919.56;;;8.12;100.00
10806;BME280;5455;53.224;6.000;2023-05-16T04:29:49;101926.53;;;8.18;100.00
10806;BME280;5455;53.224;6.000;2023-05-16T04:32:16;101931.91;;;8.23;100.00
10806;BME280;5455;53.224;6.000;2023-05-16T04:34:44;101935.63;;;8.27;100.00
10806;BME280;5455;53.224;6.000;2023-05-16T04:37:12;101923.75;;;8.32;100.00
10806;BME280;5455;53.224;6.000;2023-05-16T04:39:40;101940.41;;;8.35;100.00
10806;BME280;5455;53.224;6.000;2023-05-16T04:42:08;101935.56;;;8.41;100.00
10806;BME280;5455;53.224;6.000;2023-05-16T04:44:35;101933.69;;;8.58;100.00
10806;BME280;5455;53.224;6.000;2023-05-16T04:47:02;101948.44;;;8.71;100.00
10806;BME280;5455;53.224;6.000;2023-05-16T04:49:29;101942.81;;;8.84;100.00
10806;BME280;5455;53.224;6.000;2023-05-16T04:51:56;101938.75;;;8.82;100.00
10806;BME280;5455;53.224;6.000;2023-05-16T04:54:23;101943.94;;;8.83;100.00
10806;BME280;5455;53.224;6.000;2023-05-16T04:56:50;101939.75;;;8.86;100.00
10806;BME280;5455;53.224;6.000;2023-05-16T04:59:17;101945.41;;;8.90;100.00
10806;BME280;5455;53.224;6.000;2023-05-16T05:01:44;101954.16;;;9.00;100.00
10806;BME280;5455;53.224;6.000;2023-05-16T05:04:11;101954.00;;;9.22;100.00
10806;BME280;5455;53.224;6.000;2023-05-16T05:06:38;101964.41;;;9.43;100.00
10806;BME280;5455;53.224;6.000;2023-05-16T05:09:05;101954.84;;;9.57;100.00
10806;BME280;5455;53.224;6.000;2023-05-16T05:11:31;101962.47;;;9.52;100.00
10806;BME280;5455;53.224;6.000;2023-05-16T05:13:59;101964.88;;;9.45;100.00
10806;BME280;5455;53.224;6.000;2023-05-16T05:16:26;101961.47;;;9.39;100.00
10806;BME280;5455;53.224;6.000;2023-05-16T05:18:53;101970.38;;;9.36;100.00
10806;BME280;5455;53.224;6.000;2023-05-16T05:21:20;101969.91;;;9.34;100.00
10806;BME280;5455;53.224;6.000;2023-05-16T05:23:47;101963.09;;;9.31;100.00
10806;BME280;5455;53.224;6.000;2023-05-16T05:26:16;101978.00;;;9.30;100.00
10806;BME280;5455;53.224;6.000;2023-05-16T05:28:43;101976.38;;;9.29;100.00
10806;BME280;5455;53.224;6.000;2023-05-16T05:31:27;101976.38;;;9.38;100.00
10806;BME280;5455;53.224;6.000;2023-05-16T05:33:54;101972.81;;;9.55;100.00
10806;BME280;5455;53.224;6.000;2023-05-16T05:36:22;101979.88;;;9.98;100.00
10806;BME280;5455;53.224;6.000;2023-05-16T05:38:50;101986.34;;;10.20;100.00
10806;BME280;5455;53.224;6.000;2023-05-16T05:41:17;101994.63;;;10.03;100.00
10806;BME280;5455;53.224;6.000;2023-05-16T05:43:44;101997.28;;;9.82;100.00
10806;BME280;5455;53.224;6.000;2023-05-16T05:46:11;101994.84;;;9.72;100.00
10806;BME280;5455;53.224;6.000;2023-05-16T05:48:38;101990.78;;;9.69;100.00
10806;BME280;5455;53.224;6.000;2023-05-16T05:51:05;101997.56;;;9.80;100.00
10806;BME280;5455;53.224;6.000;2023-05-16T05:53:33;102000.66;;;9.87;100.00
10806;BME280;5455;53.224;6.000;2023-05-16T05:56:00;102007.28;;;9.86;100.00
10806;BME280;5455;53.224;6.000;2023-05-16T05:58:27;102001.63;;;9.83;100.00
10806;BME280;5455;53.224;6.000;2023-05-16T06:00:54;102010.53;;;9.71;100.00
10806;BME280;5455;53.224;6.000;2023-05-16T06:03:21;102002.47;;;9.66;100.00
10806;BME280;5455;53.224;6.000;2023-05-16T06:05:48;102003.41;;;9.70;100.00
10806;BME280;5455;53.224;6.000;2023-05-16T06:08:15;102002.63;;;9.78;100.00
10806;BME280;5455;53.224;6.000;2023-05-16T06:10:42;102010.22;;;9.81;100.00
10806;BME280;5455;53.224;6.000;2023-05-16T06:13:09;102013.28;;;9.80;100.00
10806;BME280;5455;53.224;6.000;2023-05-16T06:15:36;102010.69;;;9.92;100.00
10806;BME280;5455;53.224;6.000;2023-05-16T06:18:03;102015.84;;;10.19;100.00
10806;BME280;5455;53.224;6.000;2023-05-16T06:20:30;102017.56;;;10.49;100.00
10806;BME280;5455;53.224;6.000;2023-05-16T06:22:57;102023.97;;;10.71;100.00
10806;BME280;5455;53.224;6.000;2023-05-16T06:25:24;102025.56;;;10.80;100.00
10806;BME280;5455;53.224;6.000;2023-05-16T06:27:52;102026.78;;;10.91;100.00
10806;BME280;5455;53.224;6.000;2023-05-16T06:30:19;102019.97;;;11.18;100.00
10806;BME280;5455;53.224;6.000;2023-05-16T06:32:46;102021.34;;;11.33;100.00
10806;BME280;5455;53.224;6.000;2023-05-16T06:35:12;102024.06;;;11.62;100.00
10806;BME280;5455;53.224;6.000;2023-05-16T06:37:39;102016.09;;;11.60;100.00
10806;BME280;5455;53.224;6.000;2023-05-16T06:40:09;102024.03;;;11.71;100.00
10806;BME280;5455;53.224;6.000;2023-05-16T06:42:36;102023.66;;;11.51;100.00
10806;BME280;5455;53.224;6.000;2023-05-16T06:45:04;102018.41;;;11.79;100.00
10806;BME280;5455;53.224;6.000;2023-05-16T06:47:31;102027.09;;;12.10;100.00
10806;BME280;5455;53.224;6.000;2023-05-16T06:49:58;102037.38;;;12.22;100.00
10806;BME280;5455;53.224;6.000;2023-05-16T06:52:25;102051.75;;;12.15;100.00
10806;BME280;5455;53.224;6.000;2023-05-16T06:54:52;102042.38;;;12.08;100.00
10806;BME280;5455;53.224;6.000;2023-05-16T06:57:19;102040.78;;;12.07;100.00
10806;BME280;5455;53.224;6.000;2023-05-16T06:59:46;102042.75;;;11.86;100.00
10806;BME280;5455;53.224;6.000;2023-05-16T07:02:13;102036.84;;;11.67;100.00
10806;BME280;5455;53.224;6.000;2023-05-16T07:04:40;102039.91;;;11.53;100.00
10806;BME280;5455;53.224;6.000;2023-05-16T07:07:07;102037.00;;;11.49;100.00
10806;BME280;5455;53.224;6.000;2023-05-16T07:09:34;102046.75;;;11.47;100.00
10806;BME280;5455;53.224;6.000;2023-05-16T07:12:02;102048.06;;;11.70;100.00
10806;BME280;5455;53.224;6.000;2023-05-16T07:14:29;102061.34;;;12.30;100.00
10806;BME280;5455;53.224;6.000;2023-05-16T07:16:56;102051.81;;;12.40;100.00
10806;BME280;5455;53.224;6.000;2023-05-16T07:19:23;102048.88;;;12.69;100.00
10806;BME280;5455;53.224;6.000;2023-05-16T07:21:51;102062.41;;;12.83;100.00
10806;BME280;5455;53.224;6.000;2023-05-16T07:24:19;102058.97;;;12.53;100.00
10806;BME280;5455;53.224;6.000;2023-05-16T07:26:46;102070.53;;;11.89;100.00
10806;BME280;5455;53.224;6.000;2023-05-16T07:29:13;102066.03;;;11.55;100.00
10806;BME280;5455;53.224;6.000;2023-05-16T07:31:40;102062.84;;;11.45;100.00
10806;BME280;5455;53.224;6.000;2023-05-16T07:34:09;102067.44;;;11.41;100.00
10806;BME280;5455;53.224;6.000;2023-05-16T07:36:37;102058.75;;;11.51;100.00
10806;BME280;5455;53.224;6.000;2023-05-16T07:39:04;102052.72;;;11.78;100.00
10806;BME280;5455;53.224;6.000;2023-05-16T07:41:31;102058.16;;;12.40;100.00
10806;BME280;5455;53.224;6.000;2023-05-16T07:43:58;102062.25;;;12.67;100.00
10806;BME280;5455;53.224;6.000;2023-05-16T07:46:25;102053.38;;;12.74;100.00
10806;BME280;5455;53.224;6.000;2023-05-16T07:48:52;102057.41;;;12.64;100.00
10806;BME280;5455;53.224;6.000;2023-05-16T07:51:19;102076.00;;;12.31;100.00
10806;BME280;5455;53.224;6.000;2023-05-16T07:53:46;102069.56;;;11.85;100.00
10806;BME280;5455;53.224;6.000;2023-05-16T07:56:13;102065.44;;;11.50;100.00
10806;BME280;5455;53.224;6.000;2023-05-16T07:58:41;102070.38;;;11.36;100.00
10806;BME280;5455;53.224;6.000;2023-05-16T08:01:08;102075.78;;;11.32;100.00
10806;BME280;5455;53.224;6.000;2023-05-16T08:03:35;102077.41;;;11.54;100.00
10806;BME280;5455;53.224;6.000;2023-05-16T08:06:03;102063.69;;;12.07;100.00
10806;BME280;5455;53.224;6.000;2023-05-16T08:08:30;102073.28;;;12.55;100.00
10806;BME280;5455;53.224;6.000;2023-05-16T08:10:58;102078.38;;;12.65;100.00
10806;BME280;5455;53.224;6.000;2023-05-16T08:13:25;102071.94;;;12.73;100.00
10806;BME280;5455;53.224;6.000;2023-05-16T08:15:52;102074.84;;;12.77;100.00
10806;BME280;5455;53.224;6.000;2023-05-16T08:18:20;102076.72;;;12.40;100.00
10806;BME280;5455;53.224;6.000;2023-05-16T08:20:48;102080.88;;;12.46;100.00
10806;BME280;5455;53.224;6.000;2023-05-16T08:23:15;102078.38;;;12.65;100.00
10806;BME280;5455;53.224;6.000;2023-05-16T08:25:42;102074.63;;;12.82;100.00
10806;BME280;5455;53.224;6.000;2023-05-16T08:28:09;102068.81;;;12.75;100.00
10806;BME280;5455;53.224;6.000;2023-05-16T08:30:36;102085.38;;;13.32;100.00
10806;BME280;5455;53.224;6.000;2023-05-16T08:33:06;102082.84;;;13.51;100.00
10806;BME280;5455;53.224;6.000;2023-05-16T08:35:35;102085.06;;;13.21;99.13
10806;BME280;5455;53.224;6.000;2023-05-16T08:38:02;102091.06;;;12.66;100.00
10806;BME280;5455;53.224;6.000;2023-05-16T08:40:29;102084.28;;;12.31;100.00
10806;BME280;5455;53.224;6.000;2023-05-16T08:42:57;102084.50;;;12.58;100.00
10806;BME280;5455;53.224;6.000;2023-05-16T08:45:24;102075.22;;;13.36;100.00
10806;BME280;5455;53.224;6.000;2023-05-16T08:47:54;102095.31;;;13.33;100.00
10806;BME280;5455;53.224;6.000;2023-05-16T08:50:21;102095.88;;;12.57;100.00
10806;BME280;5455;53.224;6.000;2023-05-16T08:52:51;102090.41;;;12.03;100.00
10806;BME280;5455;53.224;6.000;2023-05-16T08:55:19;102094.66;;;12.01;100.00
10806;BME280;5455;53.224;6.000;2023-05-16T08:57:49;102095.16;;;12.48;100.00
10806;BME280;5455;53.224;6.000;2023-05-16T09:00:19;102089.31;;;12.49;100.00
10806;BME280;5455;53.224;6.000;2023-05-16T09:02:48;102096.75;;;12.82;98.98
10806;BME280;5455;53.224;6.000;2023-05-16T09:05:16;102092.31;;;13.25;98.12
10806;BME280;5455;53.224;6.000;2023-05-16T09:07:44;102106.16;;;13.38;93.16
10806;BME280;5455;53.224;6.000;2023-05-16T09:10:12;102098.31;;;13.15;92.05
10806;BME280;5455;53.224;6.000;2023-05-16T09:12:40;102100.22;;;13.75;91.08
10806;BME280;5455;53.224;6.000;2023-05-16T09:15:08;102100.66;;;13.90;83.53
10806;BME280;5455;53.224;6.000;2023-05-16T09:17:38;102109.75;;;13.38;83.53
10806;BME280;5455;53.224;6.000;2023-05-16T09:22:39;102097.78;;;13.74;84.30
10806;BME280;5455;53.224;6.000;2023-05-16T09:25:07;102090.22;;;13.22;88.63
10806;BME280;5455;53.224;6.000;2023-05-16T09:27:46;102097.63;;;13.55;91.33
10806;BME280;5455;53.224;6.000;2023-05-16T09:30:14;102096.47;;;13.32;87.26
10806;BME280;5455;53.224;6.000;2023-05-16T09:32:44;102104.56;;;13.24;88.25
10806;BME280;5455;53.224;6.000;2023-05-16T09:35:15;102101.97;;;13.56;87.18
10806;BME280;5455;53.224;6.000;2023-05-16T09:38:02;102100.22;;;13.75;76.61
10806;BME280;5455;53.224;6.000;2023-05-16T09:40:30;102109.94;;;14.09;77.10
10806;BME280;5455;53.224;6.000;2023-05-16T09:43:04;102110.91;;;14.01;79.63
10806;BME280;5455;53.224;6.000;2023-05-16T09:45:33;102119.53;;;14.12;79.16
10806;BME280;5455;53.224;6.000;2023-05-16T09:48:04;102109.66;;;13.87;75.91
10806;BME280;5455;53.224;6.000;2023-05-16T09:50:36;102114.47;;;13.38;77.71
10806;BME280;5455;53.224;6.000;2023-05-16T09:53:04;102110.84;;;12.89;83.81
10806;BME280;5455;53.224;6.000;2023-05-16T09:55:32;102108.09;;;12.56;97.32
10806;BME280;5455;53.224;6.000;2023-05-16T09:57:59;102104.84;;;12.42;100.00
10806;BME280;5455;53.224;6.000;2023-05-16T10:00:31;102112.59;;;12.48;100.00
10806;BME280;5455;53.224;6.000;2023-05-16T10:03:00;102105.50;;;12.84;100.00
10806;BME280;5455;53.224;6.000;2023-05-16T10:05:32;102099.72;;;13.34;100.00
10806;BME280;5455;53.224;6.000;2023-05-16T10:08:01;102105.44;;;13.53;95.15
10806;BME280;5455;53.224;6.000;2023-05-16T10:10:28;102122.78;;;13.38;91.44
10806;BME280;5455;53.224;6.000;2023-05-16T10:12:57;102109.16;;;13.57;86.63
10806;BME280;5455;53.224;6.000;2023-05-16T10:15:27;102110.97;;;13.65;82.93
10806;BME280;5455;53.224;6.000;2023-05-16T10:17:56;102112.88;;;13.37;82.37
10806;BME280;5455;53.224;6.000;2023-05-16T10:20:26;102123.13;;;13.24;86.44
10806;BME280;5455;53.224;6.000;2023-05-16T10:22:55;102123.31;;;13.07;85.49
10806;BME280;5455;53.224;6.000;2023-05-16T10:25:33;102138.25;;;13.14;86.05
10806;BME280;5455;53.224;6.000;2023-05-16T10:28:02;102119.75;;;13.06;85.90
10806;BME280;5455;53.224;6.000;2023-05-16T10:30:31;102122.16;;;12.96;87.51
10806;BME280;5455;53.224;6.000;2023-05-16T10:33:00;102122.31;;;13.23;89.93
10806;BME280;5455;53.224;6.000;2023-05-16T10:35:28;102134.91;;;13.57;84.80
10806;BME280;5455;53.224;6.000;2023-05-16T10:37:56;102120.81;;;13.50;82.16
10806;BME280;5455;53.224;6.000;2023-05-16T10:40:24;102118.03;;;14.14;86.59
10806;BME280;5455;53.224;6.000;2023-05-16T10:42:59;102121.19;;;14.41;78.43
10806;BME280;5455;53.224;6.000;2023-05-16T10:45:26;102117.31;;;14.17;80.46
10806;BME280;5455;53.224;6.000;2023-05-16T10:50:39;102121.59;;;13.75;83.30
10806;BME280;5455;53.224;6.000;2023-05-16T10:56:07;102118.69;;;13.84;84.72
10806;BME280;5455;53.224;6.000;2023-05-16T11:01:42;102133.34;;;14.24;83.40
10806;BME280;5455;53.224;6.000;2023-05-16T11:04:10;102121.66;;;14.03;83.57
10806;BME280;5455;53.224;6.000;2023-05-16T11:09:26;102140.56;;;13.49;89.22
10806;BME280;5455;53.224;6.000;2023-05-16T11:11:55;102135.47;;;13.63;90.85
10806;BME280;5455;53.224;6.000;2023-05-16T11:17:15;102128.47;;;14.33;85.98
10806;BME280;5455;53.224;6.000;2023-05-16T11:19:50;102115.19;;;14.54;83.75
10806;BME280;5455;53.224;6.000;2023-05-16T11:27:43;102124.47;;;14.18;80.61
10806;BME280;5455;53.224;6.000;2023-05-16T11:32:43;102145.16;;;14.76;79.71
10806;BME280;5455;53.224;6.000;2023-05-16T11:35:13;102133.28;;;14.48;78.92
10806;BME280;5455;53.224;6.000;2023-05-16T11:37:42;102141.47;;;14.57;75.44
10806;BME280;5455;53.224;6.000;2023-05-16T11:40:10;102140.31;;;14.73;74.50
10806;BME280;5455;53.224;6.000;2023-05-16T11:42:40;102134.34;;;15.18;72.77
10806;BME280;5455;53.224;6.000;2023-05-16T11:45:09;102140.34;;;14.89;70.79
10806;BME280;5455;53.224;6.000;2023-05-16T11:47:38;102139.44;;;14.85;72.32
10806;BME280;5455;53.224;6.000;2023-05-16T11:50:09;102145.34;;;14.68;71.16
10806;BME280;5455;53.224;6.000;2023-05-16T11:52:37;102153.22;;;14.81;70.44
10806;BME280;5455;53.224;6.000;2023-05-16T11:55:07;102141.38;;;14.53;70.52
10806;BME280;5455;53.224;6.000;2023-05-16T11:57:37;102147.34;;;14.55;72.40
10806;BME280;5455;53.224;6.000;2023-05-16T12:02:39;102141.63;;;15.23;69.45
10806;BME280;5455;53.224;6.000;2023-05-16T12:05:08;102145.91;;;14.89;70.99
10806;BME280;5455;53.224;6.000;2023-05-16T12:07:36;102145.38;;;14.83;70.27
10806;BME280;5455;53.224;6.000;2023-05-16T12:10:07;102128.81;;;15.50;71.85
10806;BME280;5455;53.224;6.000;2023-05-16T12:12:36;102154.03;;;16.11;68.83
10806;BME280;5455;53.224;6.000;2023-05-16T12:15:06;102155.19;;;15.75;65.88
10806;BME280;5455;53.224;6.000;2023-05-16T12:17:38;102148.16;;;15.62;64.18
10806;BME280;5455;53.224;6.000;2023-05-16T12:20:07;102146.75;;;15.52;63.14
10806;BME280;5455;53.224;6.000;2023-05-16T12:22:39;102159.38;;;15.34;62.93
10806;BME280;5455;53.224;6.000;2023-05-16T12:25:32;102160.72;;;15.24;63.37
10806;BME280;5455;53.224;6.000;2023-05-16T12:28:03;102150.13;;;15.14;64.38
10806;BME280;5455;53.224;6.000;2023-05-16T12:30:31;102143.31;;;14.80;64.93
10806;BME280;5455;53.224;6.000;2023-05-16T12:33:06;102163.84;;;15.38;64.27
10806;BME280;5455;53.224;6.000;2023-05-16T12:35:40;102164.94;;;15.50;61.27
10806;BME280;5455;53.224;6.000;2023-05-16T12:38:09;102177.81;;;15.42;59.55
10806;BME280;5455;53.224;6.000;2023-05-16T12:40:36;102169.50;;;15.58;61.46
10806;BME280;5455;53.224;6.000;2023-05-16T12:43:20;102177.19;;;15.80;61.48
10806;BME280;5455;53.224;6.000;2023-05-16T12:45:53;102169.84;;;15.40;60.88
10806;BME280;5455;53.224;6.000;2023-05-16T12:48:22;102176.66;;;15.12;61.74
10806;BME280;5455;53.224;6.000;2023-05-16T12:50:49;102164.03;;;14.99;64.87
10806;BME280;5455;53.224;6.000;2023-05-16T12:53:17;102166.53;;;15.19;64.55
10806;BME280;5455;53.224;6.000;2023-05-16T12:55:44;102172.19;;;15.07;64.37
10806;BME280;5455;53.224;6.000;2023-05-16T12:58:12;102171.88;;;14.81;67.37
10806;BME280;5455;53.224;6.000;2023-05-16T13:00:39;102171.72;;;14.89;67.48
10806;BME280;5455;53.224;6.000;2023-05-16T13:03:06;102171.06;;;14.80;67.64
10806;BME280;5455;53.224;6.000;2023-05-16T13:05:34;102168.19;;;14.77;69.98
10806;BME280;5455;53.224;6.000;2023-05-16T13:08:02;102160.59;;;15.05;68.80
10806;BME280;5455;53.224;6.000;2023-05-16T13:10:29;102156.31;;;15.08;67.50
10806;BME280;5455;53.224;6.000;2023-05-16T13:12:56;102166.09;;;15.02;68.07
10806;BME280;5455;53.224;6.000;2023-05-16T13:15:26;102155.50;;;14.92;69.82
10806;BME280;5455;53.224;6.000;2023-05-16T13:17:54;102172.53;;;15.06;68.38
10806;BME280;5455;53.224;6.000;2023-05-16T13:20:21;102170.53;;;14.75;70.90
10806;BME280;5455;53.224;6.000;2023-05-16T13:22:48;102156.47;;;14.83;68.53
10806;BME280;5455;53.224;6.000;2023-05-16T13:25:15;102174.66;;;14.81;68.06
10806;BME280;5455;53.224;6.000;2023-05-16T13:27:42;102156.38;;;15.11;68.23
10806;BME280;5455;53.224;6.000;2023-05-16T13:30:09;102165.75;;;15.50;68.32
10806;BME280;5455;53.224;6.000;2023-05-16T13:32:37;102163.00;;;14.91;66.66
10806;BME280;5455;53.224;6.000;2023-05-16T13:35:04;102161.22;;;14.83;71.00
10806;BME280;5455;53.224;6.000;2023-05-16T13:37:32;102156.84;;;15.13;71.33
10806;BME280;5455;53.224;6.000;2023-05-16T13:39:59;102154.31;;;15.08;70.71
10806;BME280;5455;53.224;6.000;2023-05-16T13:42:26;102157.84;;;15.21;66.34
10806;BME280;5455;53.224;6.000;2023-05-16T13:44:53;102159.09;;;15.23;65.49